createdAt,value
2022-08-07T00:00:28.026Z,46.71
2022-08-07T00:03:09.407Z,46.91
2022-08-07T00:05:38.082Z,47.01
2022-08-07T00:08:07.816Z,47.12
2022-08-07T00:10:47.973Z,46.97
2022-08-07T00:13:25.750Z,47.14
2022-08-07T00:15:55.261Z,47.11
2022-08-07T00:18:28.526Z,47.08
2022-08-07T00:21:07.970Z,47.63
2022-08-07T00:23:40.174Z,47.48
2022-08-07T00:26:18.723Z,47.91
2022-08-07T00:28:59.378Z,48.01
2022-08-07T00:31:38.427Z,48.14
2022-08-07T00:34:09.942Z,48.67
2022-08-07T00:36:42.689Z,48.48
2022-08-07T00:39:16.486Z,48.73
2022-08-07T00:42:01.988Z,49.02
2022-08-07T00:44:38.354Z,49.63
2022-08-07T00:47:16.185Z,49.79
2022-08-07T00:50:19.653Z,50.33
2022-08-07T00:52:47.405Z,49.93
2022-08-07T00:55:17.381Z,50.55
2022-08-07T00:57:55.917Z,51.67
2022-08-07T01:00:24.913Z,51.95
2022-08-07T01:02:53.829Z,51.82
2022-08-07T01:05:24.686Z,51.75
2022-08-07T01:07:52.716Z,51.93
2022-08-07T01:10:23.374Z,51.78
2022-08-07T01:12:54.717Z,51.94
2022-08-07T01:16:01.284Z,52.47
2022-08-07T01:18:17.088Z,52.36
2022-08-07T01:20:59.437Z,52.79
2022-08-07T01:23:36.853Z,53.04
2022-08-07T01:26:16.751Z,53.39
2022-08-07T01:28:50.553Z,53.59
2022-08-07T01:31:42.340Z,54.57
2022-08-07T01:34:14.340Z,54.57
2022-08-07T01:36:44.095Z,54.02
2022-08-07T01:39:18.455Z,53.98
2022-08-07T01:42:36.742Z,53.92
2022-08-07T01:44:43.037Z,53.33
2022-08-07T01:48:16.835Z,53.90
2022-08-07T01:50:06.282Z,53.51
2022-08-07T01:52:34.717Z,53.61
2022-08-07T01:55:04.708Z,53.00
2022-08-07T01:58:05.728Z,53.07
2022-08-07T02:00:32.031Z,52.65
2022-08-07T02:03:19.222Z,52.58
2022-08-07T02:06:02.559Z,53.01
2022-08-07T02:08:54.361Z,53.07
2022-08-07T02:11:31.011Z,53.03
2022-08-07T02:14:40.432Z,53.60
2022-08-07T02:17:06.069Z,53.25
2022-08-07T02:20:04.739Z,53.64
2022-08-07T02:22:26.200Z,53.76
2022-08-07T02:24:57.663Z,53.40
2022-08-07T02:27:30.152Z,53.33
2022-08-07T02:30:07.361Z,52.94
2022-08-07T02:32:38.699Z,53.02
2022-08-07T02:35:11.511Z,53.23
2022-08-07T02:37:51.249Z,53.10
2022-08-07T02:40:34.965Z,52.80
2022-08-07T02:43:07.802Z,52.65
2022-08-07T02:46:00.219Z,52.92
2022-08-07T02:48:32.313Z,52.23
2022-08-07T02:51:41.948Z,52.11
2022-08-07T02:54:09.330Z,52.37
2022-08-07T02:56:40.837Z,52.22
2022-08-07T02:59:14.964Z,52.33
2022-08-07T03:01:47.197Z,51.95
2022-08-07T03:04:23.181Z,52.20
2022-08-07T03:06:54.013Z,53.50
2022-08-07T03:09:44.697Z,53.67
2022-08-07T03:12:21.638Z,53.82
2022-08-07T03:14:52.686Z,54.26
2022-08-07T03:17:22.173Z,54.83
2022-08-07T03:19:55.639Z,54.92
2022-08-07T03:22:30.399Z,54.78
2022-08-07T03:25:00.847Z,55.19
2022-08-07T03:27:59.745Z,55.31
2022-08-07T03:30:24.896Z,55.67
2022-08-07T03:32:58.655Z,55.78
2022-08-07T03:35:43.727Z,55.84
2022-08-07T03:38:21.048Z,56.40
2022-08-07T03:40:57.052Z,56.84
2022-08-07T03:43:32.414Z,57.25
2022-08-07T03:46:10.498Z,57.02
2022-08-07T03:49:03.005Z,57.80
2022-08-07T03:52:00.945Z,57.74
2022-08-07T03:54:35.445Z,57.99
2022-08-07T03:58:32.409Z,57.85
2022-08-07T04:00:11.525Z,57.99
2022-08-07T04:02:51.972Z,57.26
2022-08-07T04:05:40.901Z,56.52
2022-08-07T04:08:18.711Z,56.27
2022-08-07T04:10:54.832Z,56.20
2022-08-07T04:14:10.248Z,56.00
2022-08-07T04:16:31.473Z,56.14
2022-08-07T04:19:15.009Z,56.43
2022-08-07T04:22:05.373Z,55.74
2022-08-07T04:24:41.816Z,55.79
2022-08-07T04:27:15.224Z,55.75
2022-08-07T04:30:02.152Z,55.74
2022-08-07T04:33:09.409Z,55.10
2022-08-07T04:35:40.756Z,55.10
2022-08-07T04:38:15.631Z,55.23
2022-08-07T04:40:52.439Z,55.72
2022-08-07T04:44:09.965Z,55.84
2022-08-07T04:47:04.261Z,56.09
2022-08-07T04:49:57.902Z,55.96
2022-08-07T04:53:03.460Z,56.64
2022-08-07T04:58:16.756Z,56.27
2022-08-07T04:59:18.388Z,56.12
2022-08-07T05:02:16.819Z,56.16
2022-08-07T05:05:52.764Z,56.71
2022-08-07T05:08:59.349Z,57.48
2022-08-07T05:11:24.262Z,56.88
2022-08-07T05:14:53.407Z,56.55
2022-08-07T05:17:00.661Z,56.63
2022-08-07T05:19:44.273Z,57.11
2022-08-07T05:22:27.586Z,56.82
2022-08-07T05:25:00.661Z,56.86
2022-08-07T05:28:15.658Z,56.82
2022-08-07T05:30:32.448Z,56.78
2022-08-07T05:33:05.239Z,56.87
2022-08-07T05:35:41.823Z,57.26
2022-08-07T05:38:12.858Z,56.69
2022-08-07T05:41:02.802Z,56.80
2022-08-07T05:44:01.179Z,56.50
2022-08-07T05:46:30.714Z,56.59
2022-08-07T05:49:00.518Z,56.41
2022-08-07T05:51:46.522Z,56.38
2022-08-07T05:54:31.178Z,56.65
2022-08-07T05:57:08.238Z,56.82
2022-08-07T05:59:57.506Z,56.69
2022-08-07T06:02:33.091Z,56.87
2022-08-07T06:05:10.775Z,56.55
2022-08-07T06:08:29.144Z,55.88
2022-08-07T06:10:31.554Z,55.44
2022-08-07T06:13:02.228Z,55.42
2022-08-07T06:15:39.518Z,55.18
2022-08-07T06:18:15.889Z,55.05
2022-08-07T06:20:50.436Z,55.26
2022-08-07T06:24:36.931Z,56.05
2022-08-07T06:26:27.413Z,56.30
2022-08-07T06:29:01.450Z,56.84
2022-08-07T06:31:46.888Z,57.26
2022-08-07T06:34:20.594Z,57.03
2022-08-07T06:36:52.128Z,56.83
2022-08-07T06:40:18.023Z,56.23
2022-08-07T06:42:37.278Z,55.36
2022-08-07T06:45:19.329Z,54.86
2022-08-07T06:47:58.838Z,55.37
2022-08-07T06:50:36.460Z,54.55
2022-08-07T06:54:11.757Z,54.84
2022-08-07T06:56:01.414Z,55.04
2022-08-07T06:58:36.486Z,54.40
2022-08-07T07:01:14.301Z,54.07
2022-08-07T07:03:49.879Z,54.59
2022-08-07T07:06:26.431Z,54.38
2022-08-07T07:08:56.844Z,53.62
2022-08-07T07:12:09.131Z,53.11
2022-08-07T07:14:16.496Z,52.79
2022-08-07T07:16:50.554Z,52.58
2022-08-07T07:19:57.358Z,52.77
2022-08-07T07:22:36.380Z,53.35
2022-08-07T07:26:35.138Z,53.38
2022-08-07T07:28:29.779Z,53.04
2022-08-07T07:31:23.784Z,52.35
2022-08-07T07:33:59.038Z,52.09
2022-08-07T07:36:32.170Z,52.18
2022-08-07T07:39:02.653Z,52.56
2022-08-07T07:41:50.688Z,52.68
2022-08-07T07:44:27.713Z,51.74
2022-08-07T07:47:11.920Z,51.88
2022-08-07T07:50:33.755Z,51.67
2022-08-07T07:52:36.147Z,51.63
2022-08-07T07:55:06.381Z,51.49
2022-08-07T07:57:51.901Z,51.54
2022-08-07T08:00:29.675Z,51.32
2022-08-07T08:03:16.579Z,51.68
2022-08-07T08:05:55.163Z,51.20
2022-08-07T08:08:36.974Z,51.36
2022-08-07T08:11:16.236Z,51.56
2022-08-07T08:13:53.848Z,52.04
2022-08-07T08:16:35.261Z,52.84
2022-08-07T08:19:17.769Z,53.04
2022-08-07T08:22:15.944Z,52.32
2022-08-07T08:25:24.746Z,52.11
2022-08-07T08:28:03.732Z,52.29
2022-08-07T08:30:34.630Z,52.17
2022-08-07T08:33:10.383Z,51.72
2022-08-07T08:35:49.657Z,51.50
2022-08-07T08:38:25.892Z,51.86
2022-08-07T08:41:58.262Z,51.32
2022-08-07T08:44:58.211Z,51.63
2022-08-07T08:47:47.206Z,50.54
2022-08-07T08:50:39.958Z,50.47
2022-08-07T08:53:35.105Z,50.39
2022-08-07T08:56:30.795Z,49.92
2022-08-07T08:59:23.962Z,49.98
2022-08-07T09:02:14.834Z,49.41
2022-08-07T09:05:14.687Z,49.55
2022-08-07T09:08:24.413Z,49.41
2022-08-07T09:11:24.351Z,49.68
2022-08-07T09:14:30.437Z,50.02
2022-08-07T09:17:58.957Z,50.70
2022-08-07T09:21:13.952Z,49.56
2022-08-07T09:24:58.566Z,49.57
2022-08-07T09:27:59.641Z,50.66
2022-08-07T09:33:59.678Z,49.11
2022-08-07T09:36:51.597Z,48.87
2022-08-07T09:39:53.867Z,49.85
2022-08-07T09:42:51.587Z,48.85
2022-08-07T09:47:24.151Z,48.61
2022-08-07T09:50:01.949Z,48.26
2022-08-07T09:52:16.462Z,48.12
2022-08-07T09:55:16.975Z,47.90
2022-08-07T09:58:32.168Z,48.20
2022-08-07T10:01:53.774Z,48.25
2022-08-07T10:04:45.906Z,48.05
2022-08-07T10:07:52.611Z,48.65
2022-08-07T10:11:59.657Z,47.35
2022-08-07T10:14:04.200Z,47.85
2022-08-07T10:16:41.766Z,47.74
2022-08-07T10:19:41.093Z,47.19
2022-08-07T10:22:56.042Z,47.35
2022-08-07T10:26:00.610Z,47.05
2022-08-07T10:29:02.902Z,46.72
2022-08-07T10:32:37.100Z,46.80
2022-08-07T10:35:25.729Z,46.75
2022-08-07T10:38:48.660Z,47.12
2022-08-07T10:41:51.839Z,47.51
2022-08-07T10:44:51.876Z,46.29
2022-08-07T10:48:03.351Z,45.95
2022-08-07T10:50:31.355Z,45.73
2022-08-07T10:53:43.907Z,45.54
2022-08-07T10:56:49.387Z,45.53
2022-08-07T10:59:38.422Z,44.97
2022-08-07T11:02:33.074Z,45.52
2022-08-07T11:05:49.245Z,46.19
2022-08-07T11:08:52.989Z,45.11
2022-08-07T11:11:37.575Z,44.63
2022-08-07T11:14:46.299Z,45.43
2022-08-07T11:17:23.184Z,45.22
2022-08-07T11:20:31.268Z,44.20
2022-08-07T11:23:07.299Z,44.11
2022-08-07T11:25:50.158Z,43.66
2022-08-07T11:28:34.253Z,43.82
2022-08-07T11:31:35.052Z,43.35
2022-08-07T11:34:28.838Z,43.68
2022-08-07T11:38:09.984Z,44.08
2022-08-07T11:40:56.527Z,44.30
2022-08-07T11:43:41.183Z,43.34
2022-08-07T11:47:10.006Z,43.53
2022-08-07T11:50:31.509Z,43.22
2022-08-07T11:53:27.951Z,42.56
2022-08-07T11:56:28.380Z,41.84
2022-08-07T12:00:08.047Z,41.93
2022-08-07T12:02:57.819Z,41.51
2022-08-07T12:05:58.347Z,41.60
2022-08-07T12:08:52.532Z,40.94
2022-08-07T12:11:32.777Z,40.52
2022-08-07T12:14:20.747Z,40.55
2022-08-07T12:17:08.734Z,40.13
2022-08-07T12:20:30.677Z,40.29
2022-08-07T12:23:37.221Z,39.00
2022-08-07T12:26:47.007Z,39.40
2022-08-07T12:29:38.235Z,40.72
2022-08-07T12:32:38.128Z,40.27
2022-08-07T12:35:12.558Z,39.44
2022-08-07T12:38:09.450Z,39.32
2022-08-07T12:40:50.866Z,38.70
2022-08-07T12:44:03.769Z,39.00
2022-08-07T12:46:54.557Z,39.31
2022-08-07T12:50:04.660Z,38.44
2022-08-07T12:53:05.261Z,37.46
2022-08-07T12:56:10.111Z,36.71
2022-08-07T12:58:46.876Z,37.19
2022-08-07T13:01:42.980Z,36.90
2022-08-07T13:05:01.124Z,36.18
2022-08-07T13:08:19.295Z,36.51
2022-08-07T13:11:18.342Z,35.88
2022-08-07T13:14:31.921Z,35.83
2022-08-07T13:17:13.208Z,35.65
2022-08-07T13:20:16.019Z,36.20
2022-08-07T13:22:57.599Z,34.86
2022-08-07T13:25:39.272Z,35.30
2022-08-07T13:28:30.034Z,35.30
2022-08-07T13:31:19.580Z,34.83
2022-08-07T13:34:35.453Z,34.87
2022-08-07T13:37:20.315Z,34.50
2022-08-07T13:40:35.913Z,34.58
2022-08-07T13:43:15.039Z,35.06
2022-08-07T13:46:11.977Z,34.59
2022-08-07T13:48:39.727Z,33.05
2022-08-07T13:51:28.553Z,34.26
2022-08-07T13:54:02.012Z,33.42
2022-08-07T13:56:41.219Z,34.42
2022-08-07T13:59:32.877Z,33.67
2022-08-07T14:02:12.966Z,33.59
2022-08-07T14:04:54.717Z,32.90
2022-08-07T14:07:33.924Z,31.44
2022-08-07T14:10:17.808Z,31.61
2022-08-07T14:13:00.791Z,30.60
2022-08-07T14:15:44.593Z,30.47
2022-08-07T14:18:44.958Z,30.19
2022-08-07T14:22:01.771Z,30.63
2022-08-07T14:24:33.431Z,29.96
2022-08-07T14:28:09.507Z,31.02
2022-08-07T14:30:05.596Z,29.67
2022-08-07T14:32:48.146Z,29.75
2022-08-07T14:35:44.499Z,30.84
2022-08-07T14:38:26.509Z,31.26
2022-08-07T14:41:04.122Z,30.80
2022-08-07T14:43:58.525Z,29.94
2022-08-07T14:46:31.987Z,30.14
2022-08-07T14:49:56.003Z,30.40
2022-08-07T14:52:04.700Z,29.34
2022-08-07T14:54:42.008Z,28.74
2022-08-07T14:57:14.463Z,28.93
2022-08-07T15:00:04.396Z,28.41
2022-08-07T15:02:39.194Z,28.58
2022-08-07T15:07:59.112Z,28.52
2022-08-07T15:13:25.392Z,27.49
2022-08-07T15:16:02.744Z,27.68
2022-08-07T15:18:41.580Z,28.17
2022-08-07T15:21:54.067Z,27.90
2022-08-07T15:25:14.054Z,27.90
2022-08-07T15:27:23.103Z,27.96
2022-08-07T15:30:09.274Z,28.73
2022-08-07T15:33:01.202Z,28.33
2022-08-07T15:35:40.719Z,28.19
2022-08-07T15:38:51.697Z,28.72
2022-08-07T15:44:18.146Z,28.08
2022-08-07T15:46:55.884Z,27.58
2022-08-07T15:50:04.362Z,27.37
2022-08-07T15:52:30.297Z,27.45
2022-08-07T15:55:03.827Z,27.24
2022-08-07T15:57:47.893Z,27.02
2022-08-07T16:00:31.580Z,27.01
2022-08-07T16:03:21.653Z,27.09
2022-08-07T16:06:09.591Z,26.34
2022-08-07T16:08:45.606Z,26.38
2022-08-07T16:11:39.892Z,25.46
2022-08-07T16:14:30.319Z,25.31
2022-08-07T16:18:01.697Z,25.90
2022-08-07T16:22:03.061Z,25.11
2022-08-07T16:24:34.394Z,25.23
2022-08-07T16:27:40.663Z,25.29
2022-08-07T16:30:32.005Z,25.56
2022-08-07T16:34:03.323Z,25.72
2022-08-07T16:36:31.446Z,26.50
2022-08-07T16:39:40.357Z,26.56
2022-08-07T16:42:25.321Z,26.68
2022-08-07T16:45:15.634Z,27.05
2022-08-07T16:48:27.840Z,27.77
2022-08-07T16:51:54.668Z,27.69
2022-08-07T16:55:08.223Z,27.56
2022-08-07T16:58:19.178Z,28.29
2022-08-07T17:01:41.246Z,28.14
2022-08-07T17:04:24.730Z,28.86
2022-08-07T17:07:18.650Z,28.77
2022-08-07T17:10:09.191Z,29.24
2022-08-07T17:13:41.629Z,29.14
2022-08-07T17:16:22.117Z,29.86
2022-08-07T17:18:53.615Z,29.83
2022-08-07T17:21:51.321Z,30.82
2022-08-07T17:24:55.151Z,31.06
2022-08-07T17:27:32.824Z,31.87
2022-08-07T17:30:16.160Z,32.58
2022-08-07T17:34:10.162Z,33.21
2022-08-07T17:36:21.066Z,33.54
2022-08-07T17:39:19.786Z,34.27
2022-08-07T17:42:06.572Z,34.28
2022-08-07T17:44:58.554Z,34.89
2022-08-07T17:47:54.007Z,35.30
2022-08-07T17:50:42.489Z,35.56
2022-08-07T17:54:00.208Z,36.07
2022-08-07T17:56:49.637Z,36.21
2022-08-07T17:59:36.224Z,36.30
2022-08-07T18:02:15.790Z,37.16
2022-08-07T18:05:10.555Z,36.88
2022-08-07T18:08:15.492Z,37.56
2022-08-07T18:12:16.092Z,37.64
2022-08-07T18:14:24.220Z,37.67
2022-08-07T18:17:05.680Z,37.84
2022-08-07T18:30:31.596Z,38.47
2022-08-07T18:33:38.923Z,38.64
2022-08-07T18:36:43.905Z,39.02
2022-08-07T18:40:08.225Z,38.79
2022-08-07T18:42:57.710Z,38.90
2022-08-07T18:46:22.357Z,39.15
2022-08-07T18:50:31.818Z,39.82
2022-08-07T18:52:53.171Z,39.34
2022-08-07T18:55:43.345Z,39.66
2022-08-07T18:58:38.314Z,40.04
2022-08-07T19:02:17.517Z,40.04
2022-08-07T19:04:17.228Z,40.52
2022-08-07T19:07:09.732Z,40.20
2022-08-07T19:10:14.842Z,40.86
2022-08-07T19:13:10.053Z,41.26
2022-08-07T19:16:03.516Z,41.66
2022-08-07T19:19:19.766Z,41.87
2022-08-07T19:22:05.186Z,41.84
2022-08-07T19:24:44.507Z,42.27
2022-08-07T19:28:56.893Z,42.75
2022-08-07T19:30:57.101Z,42.34
2022-08-07T19:33:13.231Z,42.47
2022-08-07T19:35:51.792Z,42.20
2022-08-07T19:38:21.679Z,43.12
2022-08-07T19:40:55.422Z,43.40
2022-08-07T19:43:48.680Z,43.32
2022-08-07T19:46:26.311Z,42.95
2022-08-07T19:49:12.876Z,43.11
2022-08-07T19:51:50.687Z,43.01
2022-08-07T19:54:31.421Z,43.25
2022-08-07T19:58:01.694Z,44.27
2022-08-07T20:00:10.112Z,43.68
2022-08-07T20:02:51.863Z,43.49
2022-08-07T20:05:30.131Z,43.87
2022-08-07T20:08:03.611Z,43.85
2022-08-07T20:10:52.047Z,43.87
2022-08-07T20:13:34.417Z,43.28
2022-08-07T20:16:04.712Z,43.49
2022-08-07T20:18:34.480Z,43.90
2022-08-07T20:21:22.067Z,43.79
2022-08-07T20:24:00.297Z,44.31
2022-08-07T20:26:45.284Z,44.28
2022-08-07T20:29:48.966Z,44.56
2022-08-07T20:32:23.128Z,44.53
2022-08-07T20:34:58.539Z,44.41
2022-08-07T20:37:46.957Z,43.72
2022-08-07T20:40:33.250Z,43.34
2022-08-07T20:43:06.103Z,44.34
2022-08-07T20:46:26.208Z,44.43
2022-08-07T20:48:38.731Z,44.14
2022-08-07T20:51:30.834Z,44.42
2022-08-07T20:54:12.030Z,45.21
2022-08-07T20:56:45.958Z,45.79
2022-08-07T21:00:05.285Z,45.99
2022-08-07T21:02:38.272Z,45.15
2022-08-07T21:05:16.218Z,46.13
2022-08-07T21:07:49.590Z,46.84
2022-08-07T21:10:31.301Z,46.27
2022-08-07T21:13:03.385Z,45.55
2022-08-07T21:15:48.054Z,46.71
2022-08-07T21:18:33.755Z,47.83
2022-08-07T21:21:04.180Z,46.43
2022-08-07T21:24:22.653Z,45.91
2022-08-07T21:27:25.543Z,46.56
2022-08-07T21:30:11.303Z,47.80
2022-08-07T21:32:52.833Z,47.79
2022-08-07T21:36:06.770Z,48.13
2022-08-07T21:38:58.087Z,48.70
2022-08-07T21:41:52.100Z,48.94
2022-08-07T21:46:05.298Z,48.96
2022-08-07T21:48:42.652Z,48.65
2022-08-07T21:51:32.249Z,49.10
2022-08-07T21:54:25.019Z,48.78
2022-08-07T21:57:31.604Z,48.85
2022-08-07T22:00:11.325Z,49.17
2022-08-07T22:03:10.983Z,48.96
2022-08-07T22:05:52.690Z,48.58
2022-08-07T22:08:24.772Z,48.36
2022-08-07T22:11:03.871Z,48.61
2022-08-07T22:13:51.738Z,48.58
2022-08-07T22:16:43.879Z,49.25
2022-08-07T22:19:34.258Z,49.22
2022-08-07T22:22:28.703Z,49.49
2022-08-07T22:25:11.297Z,49.25
2022-08-07T22:28:07.788Z,49.04
2022-08-07T22:31:06.873Z,49.69
2022-08-07T22:33:56.219Z,49.96
2022-08-07T22:36:52.514Z,49.57
2022-08-07T22:40:05.145Z,50.03
2022-08-07T22:42:35.224Z,50.29
2022-08-07T22:45:11.091Z,50.83
2022-08-07T22:48:54.946Z,50.65
2022-08-07T22:52:13.757Z,51.14
2022-08-07T22:55:23.597Z,50.86
2022-08-07T23:34:24.134Z,51.16
2022-08-07T23:35:28.131Z,51.11
2022-08-07T23:38:42.154Z,51.27
2022-08-07T23:41:22.357Z,50.75
2022-08-07T23:44:24.781Z,50.45
2022-08-07T23:47:20.601Z,50.61
2022-08-07T23:50:20.950Z,50.58
2022-08-07T23:53:11.834Z,50.65
2022-08-07T23:56:11.720Z,50.87
